sensor_id;sensor_type;location;lat;lon;timestamp;temperature;humidity
57434;DHT22;43277;52.672;6.984;2022-09-03T00:00:54;16.60;84.40
57434;DHT22;43277;52.672;6.984;2022-09-03T00:08:41;16.50;85.10
57434;DHT22;43277;52.672;6.984;2022-09-03T00:11:23;16.60;84.60
57434;DHT22;43277;52.672;6.984;2022-09-03T00:16:30;16.50;86.20
57434;DHT22;43277;52.672;6.984;2022-09-03T00:19:01;16.40;87.00
57434;DHT22;43277;52.672;6.984;2022-09-03T00:22:06;16.30;86.70
57434;DHT22;43277;52.672;6.984;2022-09-03T00:24:37;16.30;86.30
57434;DHT22;43277;52.672;6.984;2022-09-03T00:27:06;16.30;87.00
57434;DHT22;43277;52.672;6.984;2022-09-03T00:29:35;16.30;86.50
57434;DHT22;43277;52.672;6.984;2022-09-03T00:32:11;16.20;85.90
57434;DHT22;43277;52.672;6.984;2022-09-03T00:34:42;16.10;87.20
57434;DHT22;43277;52.672;6.984;2022-09-03T00:37:09;16.10;87.80
57434;DHT22;43277;52.672;6.984;2022-09-03T00:39:36;16.10;86.80
57434;DHT22;43277;52.672;6.984;2022-09-03T00:42:27;16.00;87.40
57434;DHT22;43277;52.672;6.984;2022-09-03T00:48:03;16.00;87.70
57434;DHT22;43277;52.672;6.984;2022-09-03T00:53:51;15.90;88.70
57434;DHT22;43277;52.672;6.984;2022-09-03T00:56:43;15.80;88.70
57434;DHT22;43277;52.672;6.984;2022-09-03T01:04:34;15.80;89.20
57434;DHT22;43277;52.672;6.984;2022-09-03T01:09:43;15.70;90.30
57434;DHT22;43277;52.672;6.984;2022-09-03T01:12:36;15.70;90.00
57434;DHT22;43277;52.672;6.984;2022-09-03T01:15:28;15.70;90.10
57434;DHT22;43277;52.672;6.984;2022-09-03T01:18:26;15.70;90.60
57434;DHT22;43277;52.672;6.984;2022-09-03T01:21:11;15.70;90.80
57434;DHT22;43277;52.672;6.984;2022-09-03T01:29:02;15.50;90.60
57434;DHT22;43277;52.672;6.984;2022-09-03T01:37:31;15.50;90.90
57434;DHT22;43277;52.672;6.984;2022-09-03T01:40:45;15.50;91.00
57434;DHT22;43277;52.672;6.984;2022-09-03T01:43:39;15.50;91.20
57434;DHT22;43277;52.672;6.984;2022-09-03T01:46:11;15.40;91.30
57434;DHT22;43277;52.672;6.984;2022-09-03T01:56:32;15.40;91.50
57434;DHT22;43277;52.672;6.984;2022-09-03T02:02:20;15.50;91.40
57434;DHT22;43277;52.672;6.984;2022-09-03T02:04:57;15.50;91.40
57434;DHT22;43277;52.672;6.984;2022-09-03T02:07:26;15.40;91.30
57434;DHT22;43277;52.672;6.984;2022-09-03T02:10:02;15.50;91.30
57434;DHT22;43277;52.672;6.984;2022-09-03T02:12:29;15.50;91.30
57434;DHT22;43277;52.672;6.984;2022-09-03T02:15:03;15.50;91.40
57434;DHT22;43277;52.672;6.984;2022-09-03T02:17:32;15.50;91.20
57434;DHT22;43277;52.672;6.984;2022-09-03T02:20:04;15.50;91.40
57434;DHT22;43277;52.672;6.984;2022-09-03T02:22:31;15.50;90.90
57434;DHT22;43277;52.672;6.984;2022-09-03T02:24:57;15.50;90.80
57434;DHT22;43277;52.672;6.984;2022-09-03T02:27:23;15.60;90.90
57434;DHT22;43277;52.672;6.984;2022-09-03T02:29:48;15.60;90.70
57434;DHT22;43277;52.672;6.984;2022-09-03T02:32:15;15.60;90.60
57434;DHT22;43277;52.672;6.984;2022-09-03T02:34:43;15.60;90.80
57434;DHT22;43277;52.672;6.984;2022-09-03T02:37:14;15.60;91.00
57434;DHT22;43277;52.672;6.984;2022-09-03T02:39:40;15.50;91.00
57434;DHT22;43277;52.672;6.984;2022-09-03T02:42:06;15.50;90.70
57434;DHT22;43277;52.672;6.984;2022-09-03T02:44:40;15.50;90.70
57434;DHT22;43277;52.672;6.984;2022-09-03T02:47:07;15.50;90.40
57434;DHT22;43277;52.672;6.984;2022-09-03T02:49:33;15.60;90.50
57434;DHT22;43277;52.672;6.984;2022-09-03T02:52:04;15.50;90.40
57434;DHT22;43277;52.672;6.984;2022-09-03T02:54:31;15.50;90.40
57434;DHT22;43277;52.672;6.984;2022-09-03T02:56:58;15.50;90.30
57434;DHT22;43277;52.672;6.984;2022-09-03T02:59:24;15.50;90.60
57434;DHT22;43277;52.672;6.984;2022-09-03T03:01:55;15.50;90.90
57434;DHT22;43277;52.672;6.984;2022-09-03T03:04:21;15.50;90.70
57434;DHT22;43277;52.672;6.984;2022-09-03T03:06:47;15.50;90.60
57434;DHT22;43277;52.672;6.984;2022-09-03T03:09:15;15.50;91.00
57434;DHT22;43277;52.672;6.984;2022-09-03T03:11:41;15.60;91.10
57434;DHT22;43277;52.672;6.984;2022-09-03T03:14:06;15.50;91.10
57434;DHT22;43277;52.672;6.984;2022-09-03T03:16:32;15.50;90.90
57434;DHT22;43277;52.672;6.984;2022-09-03T03:18:57;15.50;91.00
57434;DHT22;43277;52.672;6.984;2022-09-03T03:21:24;15.40;91.40
57434;DHT22;43277;52.672;6.984;2022-09-03T03:23:50;15.50;91.90
57434;DHT22;43277;52.672;6.984;2022-09-03T03:26:17;15.40;92.00
57434;DHT22;43277;52.672;6.984;2022-09-03T03:28:44;15.50;91.80
57434;DHT22;43277;52.672;6.984;2022-09-03T03:31:16;15.40;91.50
57434;DHT22;43277;52.672;6.984;2022-09-03T03:33:43;15.40;91.40
57434;DHT22;43277;52.672;6.984;2022-09-03T03:36:11;15.30;91.90
57434;DHT22;43277;52.672;6.984;2022-09-03T03:38:37;15.30;92.00
57434;DHT22;43277;52.672;6.984;2022-09-03T03:41:11;15.20;92.40
57434;DHT22;43277;52.672;6.984;2022-09-03T03:43:37;15.20;92.40
57434;DHT22;43277;52.672;6.984;2022-09-03T03:46:02;15.20;92.30
57434;DHT22;43277;52.672;6.984;2022-09-03T03:48:30;15.20;92.00
57434;DHT22;43277;52.672;6.984;2022-09-03T03:51:03;15.20;92.20
57434;DHT22;43277;52.672;6.984;2022-09-03T03:53:31;15.10;92.30
57434;DHT22;43277;52.672;6.984;2022-09-03T03:55:59;15.10;92.80
57434;DHT22;43277;52.672;6.984;2022-09-03T03:58:24;15.10;92.60
57434;DHT22;43277;52.672;6.984;2022-09-03T04:00:51;15.10;92.50
57434;DHT22;43277;52.672;6.984;2022-09-03T04:03:18;15.10;92.70
57434;DHT22;43277;52.672;6.984;2022-09-03T04:05:54;15.00;93.30
57434;DHT22;43277;52.672;6.984;2022-09-03T04:08:20;15.00;92.80
57434;DHT22;43277;52.672;6.984;2022-09-03T04:10:45;14.90;93.20
57434;DHT22;43277;52.672;6.984;2022-09-03T04:13:12;14.90;93.20
57434;DHT22;43277;52.672;6.984;2022-09-03T04:15:37;14.90;93.10
57434;DHT22;43277;52.672;6.984;2022-09-03T04:18:03;14.80;93.40
57434;DHT22;43277;52.672;6.984;2022-09-03T04:20:29;14.90;93.70
57434;DHT22;43277;52.672;6.984;2022-09-03T04:22:58;14.80;93.70
57434;DHT22;43277;52.672;6.984;2022-09-03T04:25:25;14.80;93.90
57434;DHT22;43277;52.672;6.984;2022-09-03T04:27:51;14.70;93.90
57434;DHT22;43277;52.672;6.984;2022-09-03T04:30:17;14.70;94.00
57434;DHT22;43277;52.672;6.984;2022-09-03T04:32:43;14.70;94.10
57434;DHT22;43277;52.672;6.984;2022-09-03T04:35:21;14.70;94.40
57434;DHT22;43277;52.672;6.984;2022-09-03T04:37:47;14.60;94.50
57434;DHT22;43277;52.672;6.984;2022-09-03T04:40:13;14.60;94.20
57434;DHT22;43277;52.672;6.984;2022-09-03T04:42:38;14.60;94.50
57434;DHT22;43277;52.672;6.984;2022-09-03T04:45:04;14.60;94.30
57434;DHT22;43277;52.672;6.984;2022-09-03T04:47:30;14.60;94.30
57434;DHT22;43277;52.672;6.984;2022-09-03T04:49:56;14.60;94.40
57434;DHT22;43277;52.672;6.984;2022-09-03T04:52:22;14.60;94.80
57434;DHT22;43277;52.672;6.984;2022-09-03T04:54:48;14.60;94.70
57434;DHT22;43277;52.672;6.984;2022-09-03T04:57:14;14.60;95.00
57434;DHT22;43277;52.672;6.984;2022-09-03T04:59:40;14.60;95.00
57434;DHT22;43277;52.672;6.984;2022-09-03T05:02:07;14.50;95.00
57434;DHT22;43277;52.672;6.984;2022-09-03T05:04:34;14.60;95.20
57434;DHT22;43277;52.672;6.984;2022-09-03T05:06:59;14.50;95.30
57434;DHT22;43277;52.672;6.984;2022-09-03T05:09:25;14.50;95.30
57434;DHT22;43277;52.672;6.984;2022-09-03T05:11:50;14.50;95.40
57434;DHT22;43277;52.672;6.984;2022-09-03T05:14:16;14.50;95.50
57434;DHT22;43277;52.672;6.984;2022-09-03T05:16:41;14.50;95.70
57434;DHT22;43277;52.672;6.984;2022-09-03T05:19:07;14.50;95.60
57434;DHT22;43277;52.672;6.984;2022-09-03T05:21:33;14.50;95.50
57434;DHT22;43277;52.672;6.984;2022-09-03T05:24:02;14.40;95.60
57434;DHT22;43277;52.672;6.984;2022-09-03T05:26:31;14.40;96.00
57434;DHT22;43277;52.672;6.984;2022-09-03T05:29:02;14.50;96.20
57434;DHT22;43277;52.672;6.984;2022-09-03T05:31:32;14.40;96.60
57434;DHT22;43277;52.672;6.984;2022-09-03T05:34:01;14.40;96.60
57434;DHT22;43277;52.672;6.984;2022-09-03T05:36:29;14.40;96.70
57434;DHT22;43277;52.672;6.984;2022-09-03T05:38:57;14.40;97.00
57434;DHT22;43277;52.672;6.984;2022-09-03T05:41:23;14.40;97.10
57434;DHT22;43277;52.672;6.984;2022-09-03T05:43:50;14.40;97.20
57434;DHT22;43277;52.672;6.984;2022-09-03T05:46:21;14.40;97.40
57434;DHT22;43277;52.672;6.984;2022-09-03T05:48:56;14.40;97.50
57434;DHT22;43277;52.672;6.984;2022-09-03T05:51:23;14.40;97.60
57434;DHT22;43277;52.672;6.984;2022-09-03T05:53:48;14.40;97.40
57434;DHT22;43277;52.672;6.984;2022-09-03T05:56:16;14.40;97.40
57434;DHT22;43277;52.672;6.984;2022-09-03T05:58:52;14.50;96.90
57434;DHT22;43277;52.672;6.984;2022-09-03T06:01:23;14.60;97.00
57434;DHT22;43277;52.672;6.984;2022-09-03T06:03:54;14.60;97.60
57434;DHT22;43277;52.672;6.984;2022-09-03T06:06:21;14.60;97.80
57434;DHT22;43277;52.672;6.984;2022-09-03T06:08:51;14.70;97.70
57434;DHT22;43277;52.672;6.984;2022-09-03T06:11:17;14.80;97.40
57434;DHT22;43277;52.672;6.984;2022-09-03T06:13:42;14.80;97.20
57434;DHT22;43277;52.672;6.984;2022-09-03T06:16:08;14.80;97.40
57434;DHT22;43277;52.672;6.984;2022-09-03T06:18:34;14.80;97.10
57434;DHT22;43277;52.672;6.984;2022-09-03T06:21:02;15.00;97.40
57434;DHT22;43277;52.672;6.984;2022-09-03T06:23:29;15.00;97.20
57434;DHT22;43277;52.672;6.984;2022-09-03T06:26:08;15.10;97.50
57434;DHT22;43277;52.672;6.984;2022-09-03T06:28:36;15.20;97.00
57434;DHT22;43277;52.672;6.984;2022-09-03T06:31:04;15.20;97.20
57434;DHT22;43277;52.672;6.984;2022-09-03T06:33:32;15.30;96.80
57434;DHT22;43277;52.672;6.984;2022-09-03T06:36:00;15.40;96.50
57434;DHT22;43277;52.672;6.984;2022-09-03T06:38:28;15.50;96.30
57434;DHT22;43277;52.672;6.984;2022-09-03T06:40:58;15.60;95.90
57434;DHT22;43277;52.672;6.984;2022-09-03T06:43:33;15.70;95.40
57434;DHT22;43277;52.672;6.984;2022-09-03T06:46:02;15.70;95.40
57434;DHT22;43277;52.672;6.984;2022-09-03T06:48:30;15.90;94.70
57434;DHT22;43277;52.672;6.984;2022-09-03T06:50:58;15.90;94.50
57434;DHT22;43277;52.672;6.984;2022-09-03T06:53:30;16.10;94.40
57434;DHT22;43277;52.672;6.984;2022-09-03T06:55:57;16.10;94.40
57434;DHT22;43277;52.672;6.984;2022-09-03T06:58:24;16.30;93.80
57434;DHT22;43277;52.672;6.984;2022-09-03T07:00:52;16.20;93.70
57434;DHT22;43277;52.672;6.984;2022-09-03T07:03:19;16.40;93.40
57434;DHT22;43277;52.672;6.984;2022-09-03T07:05:45;16.50;93.40
57434;DHT22;43277;52.672;6.984;2022-09-03T07:08:11;16.60;93.40
57434;DHT22;43277;52.672;6.984;2022-09-03T07:10:37;16.80;92.90
57434;DHT22;43277;52.672;6.984;2022-09-03T07:13:03;16.90;92.60
57434;DHT22;43277;52.672;6.984;2022-09-03T07:15:31;17.00;92.20
57434;DHT22;43277;52.672;6.984;2022-09-03T07:17:57;17.10;92.10
57434;DHT22;43277;52.672;6.984;2022-09-03T07:20:23;17.10;92.00
57434;DHT22;43277;52.672;6.984;2022-09-03T07:22:49;17.20;91.90
57434;DHT22;43277;52.672;6.984;2022-09-03T07:25:14;17.30;91.60
57434;DHT22;43277;52.672;6.984;2022-09-03T07:27:40;17.50;91.10
57434;DHT22;43277;52.672;6.984;2022-09-03T07:30:06;17.60;91.20
57434;DHT22;43277;52.672;6.984;2022-09-03T07:32:34;17.70;91.00
57434;DHT22;43277;52.672;6.984;2022-09-03T07:35:01;17.70;90.40
57434;DHT22;43277;52.672;6.984;2022-09-03T07:37:27;17.90;90.60
57434;DHT22;43277;52.672;6.984;2022-09-03T07:39:53;18.00;90.40
57434;DHT22;43277;52.672;6.984;2022-09-03T07:42:18;18.10;89.90
57434;DHT22;43277;52.672;6.984;2022-09-03T07:44:45;18.30;89.20
57434;DHT22;43277;52.672;6.984;2022-09-03T07:47:11;18.40;88.50
57434;DHT22;43277;52.672;6.984;2022-09-03T07:49:37;18.50;87.30
57434;DHT22;43277;52.672;6.984;2022-09-03T07:52:03;18.60;87.20
57434;DHT22;43277;52.672;6.984;2022-09-03T07:54:29;18.70;85.90
57434;DHT22;43277;52.672;6.984;2022-09-03T07:56:55;18.70;86.30
57434;DHT22;43277;52.672;6.984;2022-09-03T07:59:21;18.90;86.50
57434;DHT22;43277;52.672;6.984;2022-09-03T08:01:48;19.00;85.40
57434;DHT22;43277;52.672;6.984;2022-09-03T08:04:15;19.10;86.30
57434;DHT22;43277;52.672;6.984;2022-09-03T08:06:40;19.20;85.40
57434;DHT22;43277;52.672;6.984;2022-09-03T08:09:09;19.40;83.60
57434;DHT22;43277;52.672;6.984;2022-09-03T08:11:37;19.50;83.00
57434;DHT22;43277;52.672;6.984;2022-09-03T08:14:08;19.50;83.70
57434;DHT22;43277;52.672;6.984;2022-09-03T08:16:37;19.70;83.50
57434;DHT22;43277;52.672;6.984;2022-09-03T08:19:04;19.80;82.50
57434;DHT22;43277;52.672;6.984;2022-09-03T08:21:30;20.00;81.80
57434;DHT22;43277;52.672;6.984;2022-09-03T08:23:56;20.10;80.70
57434;DHT22;43277;52.672;6.984;2022-09-03T08:26:36;20.20;80.30
57434;DHT22;43277;52.672;6.984;2022-09-03T08:29:03;20.30;80.90
57434;DHT22;43277;52.672;6.984;2022-09-03T08:31:30;20.40;80.30
57434;DHT22;43277;52.672;6.984;2022-09-03T08:33:58;20.60;79.00
57434;DHT22;43277;52.672;6.984;2022-09-03T08:36:26;20.70;77.50
57434;DHT22;43277;52.672;6.984;2022-09-03T08:38:52;20.80;76.60
57434;DHT22;43277;52.672;6.984;2022-09-03T08:44:05;21.00;77.00
57434;DHT22;43277;52.672;6.984;2022-09-03T08:46:45;21.10;76.90
57434;DHT22;43277;52.672;6.984;2022-09-03T08:49:17;21.20;75.90
57434;DHT22;43277;52.672;6.984;2022-09-03T08:51:46;21.40;74.90
57434;DHT22;43277;52.672;6.984;2022-09-03T08:54:13;21.50;75.80
57434;DHT22;43277;52.672;6.984;2022-09-03T08:56:42;21.60;74.70
57434;DHT22;43277;52.672;6.984;2022-09-03T08:59:08;21.80;73.90
57434;DHT22;43277;52.672;6.984;2022-09-03T09:04:56;22.10;72.30
57434;DHT22;43277;52.672;6.984;2022-09-03T09:07:41;22.30;69.80
57434;DHT22;43277;52.672;6.984;2022-09-03T09:10:42;22.40;69.00
57434;DHT22;43277;52.672;6.984;2022-09-03T09:21:39;22.90;69.10
57434;DHT22;43277;52.672;6.984;2022-09-03T09:24:33;23.10;67.30
57434;DHT22;43277;52.672;6.984;2022-09-03T09:27:03;23.20;67.50
57434;DHT22;43277;52.672;6.984;2022-09-03T09:29:36;23.30;67.20
57434;DHT22;43277;52.672;6.984;2022-09-03T09:32:02;23.60;67.10
57434;DHT22;43277;52.672;6.984;2022-09-03T09:34:35;23.70;64.60
57434;DHT22;43277;52.672;6.984;2022-09-03T09:37:05;23.80;63.20
57434;DHT22;43277;52.672;6.984;2022-09-03T09:39:32;23.80;63.80
57434;DHT22;43277;52.672;6.984;2022-09-03T09:42:06;23.90;62.50
57434;DHT22;43277;52.672;6.984;2022-09-03T09:44:41;24.00;62.40
57434;DHT22;43277;52.672;6.984;2022-09-03T09:47:15;24.20;61.70
57434;DHT22;43277;52.672;6.984;2022-09-03T09:52:12;24.50;60.20
57434;DHT22;43277;52.672;6.984;2022-09-03T09:54:40;24.60;59.90
57434;DHT22;43277;52.672;6.984;2022-09-03T09:57:13;24.70;59.30
57434;DHT22;43277;52.672;6.984;2022-09-03T09:59:42;24.80;59.20
57434;DHT22;43277;52.672;6.984;2022-09-03T10:02:25;24.90;58.20
57434;DHT22;43277;52.672;6.984;2022-09-03T10:04:52;25.10;56.80
57434;DHT22;43277;52.672;6.984;2022-09-03T10:07:29;25.20;56.20
57434;DHT22;43277;52.672;6.984;2022-09-03T10:10:15;25.30;56.00
57434;DHT22;43277;52.672;6.984;2022-09-03T10:21:09;25.70;53.20
57434;DHT22;43277;52.672;6.984;2022-09-03T10:26:23;25.90;53.80
57434;DHT22;43277;52.672;6.984;2022-09-03T10:28:58;26.10;53.60
57434;DHT22;43277;52.672;6.984;2022-09-03T10:31:45;26.40;52.20
57434;DHT22;43277;52.672;6.984;2022-09-03T10:34:33;26.50;52.10
57434;DHT22;43277;52.672;6.984;2022-09-03T10:37:17;26.70;50.00
57434;DHT22;43277;52.672;6.984;2022-09-03T10:42:18;26.90;50.10
57434;DHT22;43277;52.672;6.984;2022-09-03T10:56:20;27.40;49.10
57434;DHT22;43277;52.672;6.984;2022-09-03T10:58:57;27.50;47.20
57434;DHT22;43277;52.672;6.984;2022-09-03T11:01:44;27.60;45.70
57434;DHT22;43277;52.672;6.984;2022-09-03T11:07:03;27.90;46.30
57434;DHT22;43277;52.672;6.984;2022-09-03T11:09:37;28.00;45.10
57434;DHT22;43277;52.672;6.984;2022-09-03T11:12:20;28.00;44.50
57434;DHT22;43277;52.672;6.984;2022-09-03T11:14:59;28.10;45.60
57434;DHT22;43277;52.672;6.984;2022-09-03T11:17:39;28.40;45.60
57434;DHT22;43277;52.672;6.984;2022-09-03T11:20:18;28.50;45.60
57434;DHT22;43277;52.672;6.984;2022-09-03T11:22:46;28.70;44.10
57434;DHT22;43277;52.672;6.984;2022-09-03T11:25:14;28.70;42.50
57434;DHT22;43277;52.672;6.984;2022-09-03T11:30:11;28.90;42.50
57434;DHT22;43277;52.672;6.984;2022-09-03T11:32:46;29.00;42.60
57434;DHT22;43277;52.672;6.984;2022-09-03T11:38:06;29.10;41.40
57434;DHT22;43277;52.672;6.984;2022-09-03T11:40:37;29.10;42.30
57434;DHT22;43277;52.672;6.984;2022-09-03T11:43:12;29.10;41.30
57434;DHT22;43277;52.672;6.984;2022-09-03T11:45:38;29.10;41.80
57434;DHT22;43277;52.672;6.984;2022-09-03T11:48:29;29.20;41.30
57434;DHT22;43277;52.672;6.984;2022-09-03T11:50:56;29.30;40.90
57434;DHT22;43277;52.672;6.984;2022-09-03T11:53:31;29.40;40.20
57434;DHT22;43277;52.672;6.984;2022-09-03T11:58:37;29.60;39.80
57434;DHT22;43277;52.672;6.984;2022-09-03T12:01:09;29.70;40.60
57434;DHT22;43277;52.672;6.984;2022-09-03T12:03:55;29.80;40.40
57434;DHT22;43277;52.672;6.984;2022-09-03T12:12:50;29.90;39.70
57434;DHT22;43277;52.672;6.984;2022-09-03T12:17:58;29.80;38.70
57434;DHT22;43277;52.672;6.984;2022-09-03T12:23:39;30.00;39.90
57434;DHT22;43277;52.672;6.984;2022-09-03T12:26:12;30.00;40.60
57434;DHT22;43277;52.672;6.984;2022-09-03T12:28:39;30.10;40.10
57434;DHT22;43277;52.672;6.984;2022-09-03T12:31:24;30.00;39.40
57434;DHT22;43277;52.672;6.984;2022-09-03T12:34:02;30.10;39.70
57434;DHT22;43277;52.672;6.984;2022-09-03T12:36:40;30.10;38.70
57434;DHT22;43277;52.672;6.984;2022-09-03T12:39:10;30.00;39.40
57434;DHT22;43277;52.672;6.984;2022-09-03T12:41:38;30.00;38.60
57434;DHT22;43277;52.672;6.984;2022-09-03T12:44:04;30.10;38.30
57434;DHT22;43277;52.672;6.984;2022-09-03T12:46:32;30.00;39.00
57434;DHT22;43277;52.672;6.984;2022-09-03T12:49:03;30.10;38.70
57434;DHT22;43277;52.672;6.984;2022-09-03T12:51:36;30.10;39.20
57434;DHT22;43277;52.672;6.984;2022-09-03T12:54:04;30.30;38.70
57434;DHT22;43277;52.672;6.984;2022-09-03T12:56:32;30.30;38.60
57434;DHT22;43277;52.672;6.984;2022-09-03T12:59:05;30.40;38.60
57434;DHT22;43277;52.672;6.984;2022-09-03T13:01:38;30.40;39.00
57434;DHT22;43277;52.672;6.984;2022-09-03T13:04:09;30.60;39.90
57434;DHT22;43277;52.672;6.984;2022-09-03T13:06:52;30.60;39.40
57434;DHT22;43277;52.672;6.984;2022-09-03T13:09:23;30.60;40.10
57434;DHT22;43277;52.672;6.984;2022-09-03T13:11:51;30.80;39.20
57434;DHT22;43277;52.672;6.984;2022-09-03T13:14:17;30.90;39.80
57434;DHT22;43277;52.672;6.984;2022-09-03T13:19:47;31.00;37.40
57434;DHT22;43277;52.672;6.984;2022-09-03T13:25:27;31.10;37.80
57434;DHT22;43277;52.672;6.984;2022-09-03T13:30:57;31.20;38.50
57434;DHT22;43277;52.672;6.984;2022-09-03T13:33:43;31.30;37.50
57434;DHT22;43277;52.672;6.984;2022-09-03T13:36:18;31.40;37.30
57434;DHT22;43277;52.672;6.984;2022-09-03T13:41:36;31.20;37.40
57434;DHT22;43277;52.672;6.984;2022-09-03T13:47:15;31.50;37.50
57434;DHT22;43277;52.672;6.984;2022-09-03T13:49:50;31.40;36.20
57434;DHT22;43277;52.672;6.984;2022-09-03T13:55:46;31.70;37.30
57434;DHT22;43277;52.672;6.984;2022-09-03T13:58:37;31.90;37.60
57434;DHT22;43277;52.672;6.984;2022-09-03T14:01:34;32.00;36.30
57434;DHT22;43277;52.672;6.984;2022-09-03T14:04:13;32.00;36.00
57434;DHT22;43277;52.672;6.984;2022-09-03T14:06:48;32.00;36.30
57434;DHT22;43277;52.672;6.984;2022-09-03T14:09:29;32.10;36.00
57434;DHT22;43277;52.672;6.984;2022-09-03T14:12:27;32.30;36.00
57434;DHT22;43277;52.672;6.984;2022-09-03T14:15:06;32.50;35.70
57434;DHT22;43277;52.672;6.984;2022-09-03T14:20:45;32.90;35.50
57434;DHT22;43277;52.672;6.984;2022-09-03T14:26:16;34.60;33.50
57434;DHT22;43277;52.672;6.984;2022-09-03T14:29:02;35.30;32.50
57434;DHT22;43277;52.672;6.984;2022-09-03T14:34:32;34.90;34.00
57434;DHT22;43277;52.672;6.984;2022-09-03T14:37:51;35.40;32.90
57434;DHT22;43277;52.672;6.984;2022-09-03T14:40:34;36.10;31.20
57434;DHT22;43277;52.672;6.984;2022-09-03T14:43:24;35.70;31.00
57434;DHT22;43277;52.672;6.984;2022-09-03T14:49:16;34.20;33.70
57434;DHT22;43277;52.672;6.984;2022-09-03T14:52:04;34.20;32.90
57434;DHT22;43277;52.672;6.984;2022-09-03T15:07:55;33.20;32.80
57434;DHT22;43277;52.672;6.984;2022-09-03T15:10:31;32.50;33.50
57434;DHT22;43277;52.672;6.984;2022-09-03T15:13:13;31.60;34.40
57434;DHT22;43277;52.672;6.984;2022-09-03T15:21:14;30.30;37.80
57434;DHT22;43277;52.672;6.984;2022-09-03T15:29:35;30.50;40.10
57434;DHT22;43277;52.672;6.984;2022-09-03T15:32:29;30.30;37.70
57434;DHT22;43277;52.672;6.984;2022-09-03T15:35:10;30.00;38.20
57434;DHT22;43277;52.672;6.984;2022-09-03T15:37:51;29.90;39.20
57434;DHT22;43277;52.672;6.984;2022-09-03T15:43:20;30.60;39.00
57434;DHT22;43277;52.672;6.984;2022-09-03T15:45:59;30.90;38.10
57434;DHT22;43277;52.672;6.984;2022-09-03T15:48:43;30.70;38.30
57434;DHT22;43277;52.672;6.984;2022-09-03T15:51:33;31.50;37.70
57434;DHT22;43277;52.672;6.984;2022-09-03T15:56:54;34.10;34.30
57434;DHT22;43277;52.672;6.984;2022-09-03T16:00:03;35.20;33.30
57434;DHT22;43277;52.672;6.984;2022-09-03T16:08:16;33.70;33.50
57434;DHT22;43277;52.672;6.984;2022-09-03T16:10:56;32.70;34.30
57434;DHT22;43277;52.672;6.984;2022-09-03T16:16:08;31.50;35.70
57434;DHT22;43277;52.672;6.984;2022-09-03T16:18:42;30.90;38.20
57434;DHT22;43277;52.672;6.984;2022-09-03T16:24:19;30.10;40.30
57434;DHT22;43277;52.672;6.984;2022-09-03T16:29:16;29.90;41.30
57434;DHT22;43277;52.672;6.984;2022-09-03T16:32:19;29.60;40.80
57434;DHT22;43277;52.672;6.984;2022-09-03T16:40:18;29.10;43.30
57434;DHT22;43277;52.672;6.984;2022-09-03T16:42:58;28.80;43.90
57434;DHT22;43277;52.672;6.984;2022-09-03T16:45:29;28.40;44.50
57434;DHT22;43277;52.672;6.984;2022-09-03T16:50:59;28.30;43.30
57434;DHT22;43277;52.672;6.984;2022-09-03T16:56:23;29.90;41.60
57434;DHT22;43277;52.672;6.984;2022-09-03T16:59:00;30.40;39.70
57434;DHT22;43277;52.672;6.984;2022-09-03T17:04:40;30.00;39.80
57434;DHT22;43277;52.672;6.984;2022-09-03T17:07:23;29.60;39.50
57434;DHT22;43277;52.672;6.984;2022-09-03T17:10:09;29.60;39.20
57434;DHT22;43277;52.672;6.984;2022-09-03T17:15:40;28.90;40.30
57434;DHT22;43277;52.672;6.984;2022-09-03T17:24:03;27.80;42.40
57434;DHT22;43277;52.672;6.984;2022-09-03T17:26:58;27.60;43.10
57434;DHT22;43277;52.672;6.984;2022-09-03T17:35:48;26.80;44.60
57434;DHT22;43277;52.672;6.984;2022-09-03T17:39:09;26.50;45.10
57434;DHT22;43277;52.672;6.984;2022-09-03T17:47:09;25.80;47.50
57434;DHT22;43277;52.672;6.984;2022-09-03T17:49:47;25.60;48.40
57434;DHT22;43277;52.672;6.984;2022-09-03T17:55:01;25.10;50.60
57434;DHT22;43277;52.672;6.984;2022-09-03T17:57:49;24.90;51.00
57434;DHT22;43277;52.672;6.984;2022-09-03T18:00:50;24.70;50.70
57434;DHT22;43277;52.672;6.984;2022-09-03T18:03:21;24.50;50.80
57434;DHT22;43277;52.672;6.984;2022-09-03T18:05:50;24.30;51.80
57434;DHT22;43277;52.672;6.984;2022-09-03T18:11:40;23.90;52.00
57434;DHT22;43277;52.672;6.984;2022-09-03T18:14:30;23.80;52.60
57434;DHT22;43277;52.672;6.984;2022-09-03T18:19:45;23.50;53.80
57434;DHT22;43277;52.672;6.984;2022-09-03T18:22:48;23.30;53.90
57434;DHT22;43277;52.672;6.984;2022-09-03T18:25:35;23.20;54.40
57434;DHT22;43277;52.672;6.984;2022-09-03T18:31:37;22.90;55.90
57434;DHT22;43277;52.672;6.984;2022-09-03T18:34:29;22.70;55.90
57434;DHT22;43277;52.672;6.984;2022-09-03T18:37:16;22.60;56.20
57434;DHT22;43277;52.672;6.984;2022-09-03T18:40:02;22.50;58.00
57434;DHT22;43277;52.672;6.984;2022-09-03T18:46:24;22.20;59.20
57434;DHT22;43277;52.672;6.984;2022-09-03T18:49:44;22.00;61.90
57434;DHT22;43277;52.672;6.984;2022-09-03T18:52:41;21.80;61.50
57434;DHT22;43277;52.672;6.984;2022-09-03T18:55:56;21.70;61.70
57434;DHT22;43277;52.672;6.984;2022-09-03T18:58:57;21.60;63.00
57434;DHT22;43277;52.672;6.984;2022-09-03T19:01:43;21.40;64.80
57434;DHT22;43277;52.672;6.984;2022-09-03T19:08:00;21.30;65.20
57434;DHT22;43277;52.672;6.984;2022-09-03T19:13:46;21.20;64.40
57434;DHT22;43277;52.672;6.984;2022-09-03T19:22:39;21.10;63.10
57434;DHT22;43277;52.672;6.984;2022-09-03T19:25:26;21.10;63.90
57434;DHT22;43277;52.672;6.984;2022-09-03T19:28:20;20.90;64.40
57434;DHT22;43277;52.672;6.984;2022-09-03T19:31:40;20.90;64.20
57434;DHT22;43277;52.672;6.984;2022-09-03T19:34:58;20.80;64.70
57434;DHT22;43277;52.672;6.984;2022-09-03T19:38:19;20.80;64.10
57434;DHT22;43277;52.672;6.984;2022-09-03T19:41:24;20.70;64.10
57434;DHT22;43277;52.672;6.984;2022-09-03T19:47:04;20.60;63.60
57434;DHT22;43277;52.672;6.984;2022-09-03T19:53:09;20.50;63.70
57434;DHT22;43277;52.672;6.984;2022-09-03T19:55:56;20.40;63.70
57434;DHT22;43277;52.672;6.984;2022-09-03T19:59:05;20.50;64.20
57434;DHT22;43277;52.672;6.984;2022-09-03T20:01:52;20.50;63.50
57434;DHT22;43277;52.672;6.984;2022-09-03T20:05:04;20.40;63.80
57434;DHT22;43277;52.672;6.984;2022-09-03T20:07:51;20.40;63.60
57434;DHT22;43277;52.672;6.984;2022-09-03T20:10:38;20.40;62.70
57434;DHT22;43277;52.672;6.984;2022-09-03T20:13:14;20.30;62.70
57434;DHT22;43277;52.672;6.984;2022-09-03T20:15:57;20.30;62.40
57434;DHT22;43277;52.672;6.984;2022-09-03T20:18:45;20.30;62.80
57434;DHT22;43277;52.672;6.984;2022-09-03T20:21:29;20.30;62.00
57434;DHT22;43277;52.672;6.984;2022-09-03T20:24:07;20.30;63.40
57434;DHT22;43277;52.672;6.984;2022-09-03T20:29:37;20.20;62.90
57434;DHT22;43277;52.672;6.984;2022-09-03T20:32:44;20.10;63.10